createdAt,value
2022-08-01T00:02:35.265Z,74.00
2022-08-01T00:05:44.660Z,75.43
2022-08-01T00:08:50.330Z,75.68
2022-08-01T00:11:59.947Z,74.94
2022-08-01T00:15:07.353Z,75.68
2022-08-01T00:18:12.894Z,75.31
2022-08-01T00:21:21.659Z,75.83
2022-08-01T00:24:27.597Z,75.87
2022-08-01T00:27:33.214Z,75.45
2022-08-01T00:30:43.334Z,74.49
2022-08-01T00:33:48.873Z,74.99
2022-08-01T00:37:01.758Z,74.55
2022-08-01T00:40:09.491Z,73.96
2022-08-01T00:43:15.134Z,74.62
2022-08-01T00:46:20.768Z,75.82
2022-08-01T00:49:29.462Z,76.24
2022-08-01T00:52:39.010Z,76.61
2022-08-01T00:55:47.791Z,76.44
2022-08-01T00:58:56.445Z,77.18
2022-08-01T01:02:02.147Z,76.11
2022-08-01T01:05:09.639Z,76.20
2022-08-01T01:08:28.762Z,75.91
2022-08-01T01:11:51.352Z,76.52
2022-08-01T01:15:08.172Z,77.69
2022-08-01T01:18:21.484Z,77.99
2022-08-01T01:21:50.928Z,77.70
2022-08-01T01:25:26.441Z,78.74
2022-08-01T01:28:50.225Z,78.77
2022-08-01T01:32:09.010Z,79.14
2022-08-01T01:35:32.432Z,78.94
2022-08-01T01:38:45.897Z,78.54
2022-08-01T01:41:54.817Z,78.18
2022-08-01T01:45:03.421Z,78.30
2022-08-01T01:48:16.775Z,78.31
2022-08-01T01:51:28.216Z,78.56
2022-08-01T01:54:40.277Z,78.46
2022-08-01T01:57:49.692Z,78.51
2022-08-01T02:01:02.812Z,79.65
2022-08-01T02:04:14.679Z,80.35
2022-08-01T02:07:30.806Z,79.89
2022-08-01T02:10:39.164Z,79.31
2022-08-01T02:13:48.851Z,79.85
2022-08-01T02:16:55.585Z,80.75
2022-08-01T02:20:04.232Z,79.68
2022-08-01T02:23:17.180Z,79.58
2022-08-01T02:26:23.768Z,80.91
2022-08-01T02:29:40.475Z,82.08
2022-08-01T02:32:57.679Z,81.31
2022-08-01T02:36:31.073Z,81.13
2022-08-01T02:39:36.181Z,81.12
2022-08-01T02:42:47.920Z,79.97
2022-08-01T02:46:01.964Z,79.91
2022-08-01T02:49:13.063Z,80.99
2022-08-01T02:52:25.267Z,80.92
2022-08-01T02:55:36.615Z,81.47
2022-08-01T02:58:47.639Z,82.01
2022-08-01T03:01:58.348Z,81.64
2022-08-01T03:05:09.551Z,81.23
2022-08-01T03:08:22.523Z,80.54
2022-08-01T03:11:32.296Z,79.85
2022-08-01T03:14:46.205Z,79.55
2022-08-01T03:17:58.485Z,79.47
2022-08-01T03:21:08.037Z,78.41
2022-08-01T03:24:22.279Z,78.39
2022-08-01T03:27:30.131Z,78.23
2022-08-01T03:30:39.767Z,78.40
2022-08-01T03:33:45.583Z,77.96
2022-08-01T03:36:59.723Z,77.03
2022-08-01T03:40:20.714Z,77.31
2022-08-01T03:43:39.827Z,77.70
2022-08-01T03:46:52.201Z,77.18
2022-08-01T03:50:02.367Z,76.53
2022-08-01T03:53:12.969Z,76.55
2022-08-01T03:56:28.106Z,76.55
2022-08-01T03:59:35.977Z,76.50
2022-08-01T04:02:46.423Z,76.85
2022-08-01T04:05:51.993Z,76.14
2022-08-01T04:08:59.294Z,75.83
2022-08-01T04:12:12.322Z,75.09
2022-08-01T04:15:18.591Z,73.61
2022-08-01T04:18:24.096Z,72.09
2022-08-01T04:21:34.963Z,70.74
2022-08-01T04:24:41.412Z,68.05
2022-08-01T04:27:54.572Z,66.10
2022-08-01T04:31:03.149Z,62.55
2022-08-01T04:34:11.687Z,60.61
2022-08-01T04:37:20.971Z,59.11
2022-08-01T04:40:30.065Z,57.60
2022-08-01T04:43:38.547Z,57.15
2022-08-01T04:46:45.801Z,56.34
2022-08-01T04:49:51.791Z,55.94
2022-08-01T04:52:59.946Z,55.88
2022-08-01T04:56:07.079Z,55.30
2022-08-01T04:59:27.683Z,54.05
2022-08-01T05:02:33.499Z,53.90
2022-08-01T05:05:39.442Z,52.60
2022-08-01T05:08:52.711Z,48.42
2022-08-01T05:12:10.736Z,50.41
2022-08-01T05:15:25.397Z,48.38
2022-08-01T05:18:31.104Z,47.61
2022-08-01T05:21:43.203Z,45.89
2022-08-01T05:24:49.194Z,46.16
2022-08-01T05:27:55.889Z,45.18
2022-08-01T05:31:08.286Z,46.12
2022-08-01T05:34:14.857Z,46.94
2022-08-01T05:37:26.685Z,45.78
2022-08-01T05:40:32.589Z,46.40
2022-08-01T05:43:39.838Z,46.42
2022-08-01T05:46:48.246Z,47.42
2022-08-01T05:49:55.912Z,46.30
2022-08-01T05:53:01.813Z,46.20
2022-08-01T05:56:08.389Z,46.29
2022-08-01T05:59:14.348Z,44.57
2022-08-01T06:02:25.702Z,44.76
2022-08-01T06:05:31.804Z,42.93
2022-08-01T06:08:38.070Z,42.11
2022-08-01T06:11:46.281Z,41.31
2022-08-01T06:14:53.882Z,40.37
2022-08-01T06:18:02.815Z,40.36
2022-08-01T06:21:13.125Z,38.18
2022-08-01T06:24:18.993Z,35.29
2022-08-01T06:27:26.122Z,33.72
2022-08-01T06:30:32.452Z,33.53
2022-08-01T06:33:41.030Z,33.18
2022-08-01T06:36:49.586Z,33.27
2022-08-01T06:40:01.792Z,34.13
2022-08-01T06:43:16.879Z,32.38
2022-08-01T06:46:22.763Z,32.26
2022-08-01T06:49:31.423Z,33.38
2022-08-01T06:52:37.634Z,34.79
2022-08-01T06:55:43.595Z,37.83
2022-08-01T06:58:50.311Z,40.17
2022-08-01T07:01:56.286Z,38.67
2022-08-01T07:05:05.318Z,36.74
2022-08-01T07:08:11.311Z,38.79
2022-08-01T07:11:17.135Z,42.63
2022-08-01T07:14:26.005Z,41.76
2022-08-01T07:17:31.819Z,41.22
2022-08-01T07:20:51.812Z,43.32
2022-08-01T07:23:59.113Z,43.35
2022-08-01T07:27:11.532Z,42.25
2022-08-01T07:30:32.890Z,41.74
2022-08-01T07:33:48.540Z,43.37
2022-08-01T07:36:58.163Z,44.01
2022-08-01T07:40:05.373Z,45.24
2022-08-01T07:43:11.158Z,46.84
2022-08-01T07:46:17.093Z,47.64
2022-08-01T07:49:23.060Z,46.38
2022-08-01T07:52:38.480Z,46.34
2022-08-01T07:55:44.446Z,43.88
2022-08-01T07:58:52.194Z,42.73
2022-08-01T08:01:58.122Z,42.82
2022-08-01T08:05:58.269Z,40.64
2022-08-01T08:08:47.569Z,40.00
2022-08-01T08:11:53.768Z,41.49
2022-08-01T08:15:07.050Z,40.14
2022-08-01T08:18:12.879Z,40.68
2022-08-01T08:21:18.773Z,41.56
2022-08-01T08:24:27.775Z,43.31
2022-08-01T08:27:41.361Z,44.02
2022-08-01T08:30:47.156Z,44.74
2022-08-01T08:33:53.019Z,45.58
2022-08-01T08:37:01.087Z,44.23
2022-08-01T08:40:20.296Z,43.33
2022-08-01T08:43:29.026Z,42.96
2022-08-01T08:46:37.953Z,44.25
2022-08-01T08:49:49.250Z,42.67
2022-08-01T08:52:58.621Z,43.28
2022-08-01T08:56:11.814Z,42.49
2022-08-01T08:59:18.511Z,41.23
2022-08-01T09:02:27.070Z,41.91
2022-08-01T09:05:38.635Z,40.07
2022-08-01T09:08:49.742Z,41.98
2022-08-01T09:11:59.388Z,41.98
2022-08-01T09:15:11.894Z,40.07
2022-08-01T09:18:37.619Z,38.62
2022-08-01T09:21:44.252Z,40.19
2022-08-01T09:25:08.954Z,39.00
2022-08-01T09:28:17.474Z,39.39
2022-08-01T09:31:24.103Z,40.25
2022-08-01T09:34:44.091Z,39.57
2022-08-01T09:37:52.174Z,38.94
2022-08-01T09:41:02.147Z,38.39
2022-08-01T09:44:10.886Z,39.50
2022-08-01T09:47:18.341Z,39.64
2022-08-01T09:50:44.914Z,40.12
2022-08-01T09:53:53.540Z,39.08
2022-08-01T09:57:15.593Z,39.05
2022-08-01T10:00:44.499Z,38.66
2022-08-01T10:03:51.217Z,39.11
2022-08-01T10:07:10.313Z,39.42
2022-08-01T10:10:19.787Z,39.43
2022-08-01T10:13:26.353Z,38.82
2022-08-01T10:16:46.673Z,38.21
2022-08-01T10:20:01.887Z,38.61
2022-08-01T10:23:09.483Z,37.90
2022-08-01T10:26:19.334Z,38.34
2022-08-01T10:29:46.533Z,37.90
2022-08-01T10:33:08.230Z,37.64
2022-08-01T10:36:15.156Z,38.32
2022-08-01T10:39:24.705Z,37.58
2022-08-01T10:42:31.396Z,37.13
2022-08-01T10:45:41.381Z,37.55
2022-08-01T10:49:05.504Z,36.84
2022-08-01T10:52:11.374Z,34.75
2022-08-01T10:55:17.084Z,35.35
2022-08-01T10:58:39.587Z,35.01
2022-08-01T11:01:46.117Z,34.75
2022-08-01T11:05:05.132Z,34.65
2022-08-01T11:08:27.175Z,36.01
2022-08-01T11:11:37.368Z,36.93
2022-08-01T11:15:30.219Z,36.31
2022-08-01T11:18:37.699Z,36.75
2022-08-01T11:22:07.814Z,37.25
2022-08-01T11:25:16.237Z,38.64
2022-08-01T11:28:32.465Z,38.84
2022-08-01T11:31:40.969Z,39.82
2022-08-01T11:35:00.757Z,42.36
2022-08-01T11:38:35.224Z,44.13
2022-08-01T11:41:42.513Z,46.21
2022-08-01T11:44:54.812Z,47.42
2022-08-01T11:48:01.294Z,47.47
2022-08-01T11:51:25.536Z,48.21
2022-08-01T11:54:37.244Z,48.00
2022-08-01T11:57:43.202Z,49.26
2022-08-01T12:00:56.127Z,48.50
2022-08-01T12:04:02.547Z,48.49
2022-08-01T12:07:17.162Z,47.08
2022-08-01T12:10:28.586Z,45.55
2022-08-01T12:13:46.493Z,46.34
2022-08-01T12:16:57.250Z,45.64
2022-08-01T12:20:04.040Z,45.61
2022-08-01T12:23:13.084Z,44.76
2022-08-01T12:26:28.348Z,44.13
2022-08-01T12:29:40.478Z,43.80
2022-08-01T12:32:49.708Z,44.69
2022-08-01T12:35:55.976Z,42.83
2022-08-01T12:39:03.928Z,42.88
2022-08-01T12:42:13.681Z,43.21
2022-08-01T12:45:24.157Z,43.18
2022-08-01T12:48:31.908Z,42.22
2022-08-01T12:51:38.362Z,42.13
2022-08-01T12:55:14.598Z,41.98
2022-08-01T12:58:24.700Z,40.80
2022-08-01T13:01:31.674Z,39.87
2022-08-01T13:04:53.269Z,39.77
2022-08-01T13:07:59.278Z,39.43
2022-08-01T13:11:10.150Z,39.57
2022-08-01T13:14:32.099Z,39.77
2022-08-01T13:17:40.137Z,39.07
2022-08-01T13:20:45.857Z,39.52
2022-08-01T13:24:10.706Z,39.68
2022-08-01T13:27:31.217Z,39.67
2022-08-01T13:30:41.731Z,41.11
2022-08-01T13:33:54.076Z,40.03
2022-08-01T13:37:06.767Z,39.56
2022-08-01T13:40:15.582Z,40.83
2022-08-01T13:43:21.201Z,40.29
2022-08-01T13:46:29.829Z,41.49
2022-08-01T13:49:38.185Z,41.11
2022-08-01T13:52:46.709Z,41.70
2022-08-01T13:55:52.430Z,42.05
2022-08-01T13:58:58.568Z,41.80
2022-08-01T14:02:07.227Z,41.84
2022-08-01T14:05:13.888Z,42.29
2022-08-01T14:08:20.199Z,42.96
2022-08-01T14:11:25.877Z,43.75
2022-08-01T14:14:36.046Z,44.01
2022-08-01T14:17:47.912Z,43.91
2022-08-01T14:20:53.832Z,44.62
2022-08-01T14:24:02.312Z,44.77
2022-08-01T14:27:07.870Z,44.86
2022-08-01T14:30:16.826Z,44.09
2022-08-01T14:33:25.439Z,44.16
2022-08-01T14:36:32.470Z,44.31
2022-08-01T14:39:53.568Z,44.36
2022-08-01T14:43:02.298Z,45.15
2022-08-01T14:46:11.162Z,44.67
2022-08-01T14:49:19.469Z,44.74
2022-08-01T14:52:25.070Z,44.27
2022-08-01T14:55:30.908Z,43.95
2022-08-01T14:58:36.924Z,43.13
2022-08-01T15:01:42.850Z,43.26
2022-08-01T15:04:54.764Z,44.12
2022-08-01T15:08:00.338Z,44.00
2022-08-01T15:11:09.924Z,44.38
2022-08-01T15:14:27.949Z,46.86
2022-08-01T15:17:36.036Z,45.54
2022-08-01T15:20:45.040Z,46.83
2022-08-01T15:23:51.007Z,46.59
2022-08-01T15:26:56.475Z,46.77
2022-08-01T15:30:04.473Z,47.16
2022-08-01T15:33:11.085Z,48.05
2022-08-01T15:36:19.373Z,48.28
2022-08-01T15:39:32.117Z,48.16
2022-08-01T15:42:37.709Z,48.37
2022-08-01T15:45:48.519Z,48.82
2022-08-01T15:48:54.560Z,48.76
2022-08-01T15:52:03.309Z,49.15
2022-08-01T15:55:13.463Z,49.44
2022-08-01T15:58:18.973Z,50.14
2022-08-01T16:01:27.449Z,49.90
2022-08-01T16:04:33.389Z,49.10
2022-08-01T16:07:59.364Z,48.26
2022-08-01T16:11:07.565Z,48.34
2022-08-01T16:14:13.156Z,46.83
2022-08-01T16:17:18.897Z,46.65
2022-08-01T16:20:24.528Z,46.07
2022-08-01T16:23:34.426Z,46.27
2022-08-01T16:26:40.002Z,45.83
2022-08-01T16:29:45.650Z,46.23
2022-08-01T16:32:53.411Z,46.20
2022-08-01T16:36:05.248Z,46.07
2022-08-01T16:39:13.334Z,46.40
2022-08-01T16:42:18.916Z,46.48
2022-08-01T16:45:27.113Z,47.09
2022-08-01T16:48:35.338Z,47.58
2022-08-01T16:51:48.243Z,47.64
2022-08-01T16:54:59.017Z,48.51
2022-08-01T16:58:05.414Z,49.11
2022-08-01T17:01:58.604Z,49.32
2022-08-01T17:04:46.267Z,49.97
2022-08-01T17:07:51.798Z,50.47
2022-08-01T17:11:00.100Z,50.52
2022-08-01T17:14:05.852Z,50.80
2022-08-01T17:17:11.702Z,50.85
2022-08-01T17:20:17.323Z,51.67
2022-08-01T17:23:26.961Z,51.36
2022-08-01T17:26:35.356Z,51.73
2022-08-01T17:29:43.832Z,51.54
2022-08-01T17:32:50.502Z,51.96
2022-08-01T17:36:03.602Z,52.21
2022-08-01T17:39:10.114Z,52.15
2022-08-01T17:43:43.510Z,52.13
2022-08-01T17:46:49.249Z,51.77
2022-08-01T17:50:09.053Z,52.57
2022-08-01T17:53:21.173Z,52.01
2022-08-01T17:56:27.613Z,52.27
2022-08-01T17:59:35.853Z,52.99
2022-08-01T18:02:47.904Z,52.28
2022-08-01T18:06:15.934Z,52.10
2022-08-01T18:09:22.352Z,52.70
2022-08-01T18:12:35.032Z,52.33
2022-08-01T18:15:50.514Z,52.94
2022-08-01T18:18:59.276Z,52.44
2022-08-01T18:22:06.074Z,52.87
2022-08-01T18:25:31.981Z,53.08
2022-08-01T18:28:46.352Z,53.46
2022-08-01T18:31:56.391Z,54.12
2022-08-01T18:35:10.848Z,54.57
2022-08-01T18:38:19.909Z,55.40
2022-08-01T18:41:29.668Z,55.84
2022-08-01T18:44:37.111Z,55.92
2022-08-01T18:47:47.042Z,56.00
2022-08-01T18:50:54.187Z,56.43
2022-08-01T18:54:11.596Z,56.96
2022-08-01T18:57:21.063Z,57.30
2022-08-01T19:00:26.829Z,57.20
2022-08-01T19:03:43.997Z,57.93
2022-08-01T19:06:52.705Z,57.93
2022-08-01T19:09:58.388Z,58.24
2022-08-01T19:13:10.051Z,58.90
2022-08-01T19:16:32.238Z,59.11
2022-08-01T19:19:49.630Z,59.79
2022-08-01T19:22:55.655Z,60.02
2022-08-01T19:26:01.718Z,61.19
2022-08-01T19:29:18.694Z,61.55
2022-08-01T19:32:41.556Z,61.94
2022-08-01T19:35:53.802Z,62.35
2022-08-01T19:39:02.350Z,62.86
2022-08-01T19:42:11.333Z,63.00
2022-08-01T19:45:17.706Z,63.45
2022-08-01T19:48:34.750Z,63.67
2022-08-01T19:51:50.145Z,64.25
2022-08-01T19:54:59.792Z,64.41
2022-08-01T20:01:34.676Z,64.70
2022-08-01T20:04:40.223Z,64.62
2022-08-01T20:07:48.652Z,64.72
2022-08-01T20:11:10.369Z,64.60
2022-08-01T20:14:38.063Z,64.21
2022-08-01T20:17:45.930Z,64.49
2022-08-01T20:20:54.522Z,64.41
2022-08-01T20:24:07.807Z,64.20
2022-08-01T20:27:36.162Z,64.62
2022-08-01T20:31:05.509Z,64.08
2022-08-01T20:34:16.494Z,64.43
2022-08-01T20:38:03.301Z,64.21
2022-08-01T20:40:59.491Z,64.26
2022-08-01T20:44:08.822Z,64.12
2022-08-01T20:47:15.634Z,64.10
2022-08-01T20:50:54.399Z,64.42
2022-08-01T20:54:02.861Z,64.69
2022-08-01T20:57:25.845Z,65.01
2022-08-01T21:00:33.794Z,64.96
2022-08-01T21:04:01.552Z,65.50
2022-08-01T21:07:23.342Z,65.34
2022-08-01T21:10:32.498Z,66.30
2022-08-01T21:13:47.959Z,66.29
2022-08-01T21:17:08.286Z,66.90
2022-08-01T21:20:18.039Z,67.28
2022-08-01T21:23:34.417Z,67.71
2022-08-01T21:26:46.028Z,68.32
2022-08-01T21:30:01.120Z,67.67
2022-08-01T21:33:15.707Z,68.43
2022-08-01T21:36:25.150Z,68.53
2022-08-01T21:39:31.891Z,69.13
2022-08-01T21:42:42.242Z,69.23
2022-08-01T21:45:57.786Z,69.23
2022-08-01T21:49:09.101Z,69.65
2022-08-01T21:52:21.465Z,69.92
2022-08-01T21:55:51.826Z,69.80
2022-08-01T21:59:18.582Z,70.26
2022-08-01T22:02:35.810Z,69.87
2022-08-01T22:05:50.061Z,70.12
2022-08-01T22:09:09.351Z,70.26
2022-08-01T22:12:18.255Z,70.14
2022-08-01T22:15:44.721Z,70.35
2022-08-01T22:18:56.172Z,69.85
2022-08-01T22:22:32.342Z,69.93
2022-08-01T22:25:39.124Z,70.66
2022-08-01T22:28:45.049Z,70.76
2022-08-01T22:31:52.013Z,70.76
2022-08-01T22:35:10.162Z,70.60
2022-08-01T22:38:27.616Z,70.72
2022-08-01T22:42:01.681Z,71.35
2022-08-01T22:45:13.677Z,71.35
2022-08-01T22:48:34.183Z,71.25
2022-08-01T22:52:04.929Z,71.25
2022-08-01T22:55:27.309Z,71.21
2022-08-01T22:59:06.127Z,71.08
2022-08-01T23:02:17.921Z,71.52
2022-08-01T23:05:29.002Z,71.81
2022-08-01T23:08:39.905Z,71.79
2022-08-01T23:11:49.583Z,72.21
2022-08-01T23:15:01.652Z,71.90
2022-08-01T23:18:10.855Z,72.19
2022-08-01T23:21:22.345Z,71.70
2022-08-01T23:24:56.873Z,72.00
2022-08-01T23:28:23.816Z,72.61
2022-08-01T23:32:00.255Z,73.13
2022-08-01T23:35:01.835Z,73.91
2022-08-01T23:38:17.919Z,73.98
2022-08-01T23:41:26.262Z,73.82
2022-08-01T23:44:31.990Z,73.65
2022-08-01T23:47:39.678Z,73.36
2022-08-01T23:50:45.405Z,73.53
2022-08-01T23:53:51.409Z,74.19
2022-08-01T23:57:00.127Z,74.62
